View Race ResultsBlood, Sweat & Beers — February 25, 2017

Race Results2017 Blood, Sweat & Beers

Viewing Filtered Results

You are currently viewing only the Daylight Half Marathon results for Blood, Sweat & Beers. Click here to view the full race results.

Daylight Half Marathon Results

  Name Bib # Hometown Gender Age Age Group Time Time Back
1 Adam Baker 857 Las Vegas, NV Male 31 M 30–39 [1] 1:46:16
2 Ezekiel Molina 864 Santa Rosa, CA Male 42 M 40–49 [1] 1:50:44 + 4:28
3 Cheryl Sherwood 683 Delton, MI Female 46 F 40–49 [1] 1:53:35 + 7:19
4 Michael Fitzpatrick 684 Male 16 M 10–19 [1] 1:55:54 + 9:38
5 Abel Clutter 838 Mesa, AZ Male 23 M 20–29 [1] 1:55:56 + 9:40
6 Terrence Wyman 878 Albuquerque, AR Male 46 M 40–49 [2] 2:01:36 + 15:20
7 Keith Shishido 858 Corbett, OR Male 39 M 30–39 [2] 2:05:12 + 18:56
8 Ricardo Urano 789 Montenegro, BR Male 51 M 50–59 [1] 2:05:43 + 19:27
9 Unknown Runner 901 Las Vegas, NV Male 30 M 30–39 [3] 2:07:49 + 21:33
10 Douglas Golann 784 Plano, TX Male 29 M 20–29 [2] 2:10:12 + 23:56
11 Amy Al-Khalisi 841 Corbett, OR Female 41 F 40–49 [2] 2:11:06 + 24:50
12 Sergio Carrillo 799 Henderson, NV Male 39 M 30–39 [4] 2:13:48 + 27:32
13 Gaby Kinney 775 Henderson, NV Female 26 F 20–29 [1] 2:14:18 + 28:02
14 Kathryn Blakey 695 Las Vegas, AR Female 30 F 30–39 [1] 2:14:47 + 28:31
15 Iain Campbell 771 Westminster, CO Male 55 M 50–59 [2] 2:17:37 + 31:21
16 Simon Anderson 832 Portland, OR Female 37 F 30–39 [2] 2:25:01 + 38:45
17 Michael Bliss 810 Salt Lake City, UT Male 34 M 30–39 [5] 2:26:35 + 40:19
18 Ryan Hirschsohn 801 Henderson, NV Male 27 M 20–29 [3] 2:28:00 + 41:44
19 Stephanie Pogorelsky 840 Long Beach, CA Female 43 F 40–49 [3] 2:28:14 + 41:58
20 Jason Bielsker 876 Las Vegas, AR Male 28 M 20–29 [4] 2:29:10 + 42:54
21 David Kalicki 743 Batavia, IL Male 36 M 30–39 [6] 2:29:15 + 42:59
22 Michael Ringle 879 Iowa City, AR Male 40 M 40–49 [3] 2:29:26 + 43:10
23 Lucas Conley 815 Santa Fe, NM Male 38 M 30–39 [7] 2:29:49 + 43:33
24 Lisa Colety 868 Henderson, NV Female 45 F 40–49 [4] 2:30:00 + 43:44
25 Jason Regester 836 Las Vegas, NV Male 41 M 40–49 [4] 2:33:17 + 47:01
26 Regan O'Brien 837 Tempe, AZ Female 21 F 20–29 [2] 2:33:18 + 47:02
27 David Infante 749 Albuquerque, NM Male 52 M 50–59 [3] 2:33:35 + 47:19
28 Scott Hostetler 877 Henderson, AR Male 41 M 40–49 [5] 2:34:04 + 47:48
29 Hillery Francis 845 Henderson, NV Female 39 F 30–39 [3] 2:34:31 + 48:15
30 Lauren Iversen 887 Las Vegas, AR Female 23 F 20–29 [3] 2:34:34 + 48:18
31 Gary Chu 847 Henderson, NV Male 36 M 30–39 [8] 2:35:18 + 49:02
32 Tamara Shuler 766 Constantine, MI Female 56 F 50 – 59 [1] 2:37:12 + 50:56
33 Michael Salay 883 Male 48 M 40–49 [6] 2:38:04 + 51:48
34 Erik Mccall 856 Las Vegas, NV Male 43 M 40–49 [7] 2:38:06 + 51:50
35 Sandra Beaver 839 Las Vegas, NV Female 39 F 30–39 [4] 2:38:38 + 52:22
36 Scott Leland 861 Goodyear, AZ Male 49 M 40–49 [8] 2:40:02 + 53:46
37 Lora Golann 785 Boston, MA Female 32 F 30–39 [5] 2:40:28 + 54:12
38 Travis Rolstad 826 Las Vegas, NV Male 32 M 30–39 [9] 2:40:58 + 54:42
39 Louise Campbell 736 Las Vegas, NV Female 25 F 20–29 [4] 2:41:06 + 54:50
40 Valarie Coscia 731 Anchorage, AK Female 48 F 40–49 [5] 2:41:19 + 55:03
41 Susie Rand 752 Roswell, NM Female 45 F 40–49 [6] 2:41:56 + 55:40
42 Bianca Stevens 848 Las Vegas, NV Female 39 F 30–39 [6] 2:42:57 + 56:41
43 Aleck Wong 802 Potomac Falls, VA Male 41 M 40–49 [9] 2:44:27 + 58:11
44 Daniel Oliveira 783 Montenegro, BR Male 38 M 30–39 [10] 2:45:57 + 59:41
45 Ida Lum 767 West Vancouver, BC Female 48 F 40–49 [7] 2:46:23 + 1:00:07
46 Nicole Zacharias 854 Telkwa, BC Female 36 F 30–39 [7] 2:46:52 + 1:00:36
47 Andrea Kilroy 855 North Vancouver, BC Female 37 F 30–39 [8] 2:46:52 + 1:00:36
48 Sarah Koenig 697 North Vancouver, AR Female 40 F 40–49 [8] 2:47:04 + 1:00:48
49 Sara Deveraux 769 Billings, MT Female 34 F 30–39 [9] 2:49:18 + 1:03:02
50 Carlos Anguiano 786 Salinas, CA Male 25 M 20–29 [5] 2:50:43 + 1:04:27
51 Jeremiah Deveraux 768 Billings, MT Male 34 M 30–39 [11] 2:55:04 + 1:08:48
52 Aude Picard 865 Somerville, MA Female 35 F 30–39 [10] 2:55:39 + 1:09:23
53 Jessi Dorn 844 Las Vegas, NV Female 32 F 30–39 [11] 2:57:49 + 1:11:33
54 Susan Trost 734 Ingleside, IL Female 51 F 50 – 59 [2] 2:58:02 + 1:11:46
55 Amy Bliss 809 Salt Lake City, UT Female 34 F 30–39 [12] 2:58:17 + 1:12:01
56 Christy Van Nest 833 Las Vegas, NV Female 31 F 30–39 [13] 3:00:21 + 1:14:05
57 Ryan Cross 866 North Las Vegas, NV Male 36 M 30–39 [12] 3:00:38 + 1:14:22
58 Kellen Braddock 849 Las Vegas, NV Female 28 F 20–29 [5] 3:01:54 + 1:15:38
59 James Navalta 791 Henderson, NV Male 45 M 40–49 [10] 3:03:18 + 1:17:02
60 Breck Phillips 852 Nashville, TN Male 41 M 40–49 [11] 3:03:22 + 1:17:06
61 Sarah Cross 867 North Las Vegas, NV Female 36 F 30–39 [14] 3:04:19 + 1:18:03
62 Mary Haskins 685 Brooklyn, NY Female 56 F 50 – 59 [3] 3:04:53 + 1:18:37
63 Stefanie Eigen 829 Las Vegas, NV Female 47 F 40–49 [9] 3:06:59 + 1:20:43
64 Hans Schult 812 Sacramento, CA Male 56 M 50–59 [4] 3:07:34 + 1:21:18
65 Brian O'Mahoney 792 North Las Vegas, NV Male 47 M 40–49 [12] 3:08:22 + 1:22:06
66 Michael Rosten 860 Las_vegas, NV Male 53 M 50–59 [5] 3:10:56 + 1:24:40
67 Bram Weinkselbaum 835 Long Beach, CA Male 49 M 40–49 [13] 3:11:07 + 1:24:51
68 Joshua Fowler 827 Las Vegas, NV Male 34 M 30–39 [13] 3:11:51 + 1:25:35
69 Raciel Diaz 803 Las Vegas, NV Female 40 F 40–49 [10] 3:13:40 + 1:27:24
70 Nicholas Robertson 774 Las Vegas, NV Male 33 M 30–39 [14] 3:13:47 + 1:27:31
71 Kimberly Fowler 828 Las Vegas, NV Female 29 F 20–29 [6] 3:13:50 + 1:27:34
72 Jeremy Blancato 770 Mohave Valley, AZ Male 40 M 40–49 [14] 3:15:49 + 1:29:33
73 Nathan Brooks 764 Kingman, AZ Male 46 M 40–49 [15] 3:15:51 + 1:29:35
74 Grace Chu 843 Henderson, NV Female 32 F 30–39 [15] 3:17:06 + 1:30:50
75 Lisa Houle 689 Calgary, AR Female 51 F 50 – 59 [4] 3:18:12 + 1:31:56
76 Daphne Martin 820 Brandon, SD Female 27 F 20–29 [7] 3:18:45 + 1:32:29
77 Eric Jungels 772 St. Cloud, MN Male 33 M 30–39 [15] 3:19:55 + 1:33:39
78 Michael Glass 754 N Las Vegas, NV Male 36 M 30–39 [16] 3:21:36 + 1:35:20
79 Clifford Roecker 872 Huntington Beach, AR Male 28 M 20–29 [6] 3:22:12 + 1:35:56
80 Nina Ellen Keaney 687 Seattle, AR Female 46 F 40–49 [11] 3:22:31 + 1:36:15
81 Tim Kjenstad 821 Long Beach, CA Male 59 M 50–59 [6] 3:22:32 + 1:36:16
82 Kate Dowling 819 Washington, DC Female 53 F 50 – 59 [5] 3:22:33 + 1:36:17
83 Blanca Martinez 787 Salinas, CA Female 25 F 20–29 [8] 3:22:55 + 1:36:39
84 Sara Giannamore 756 Seal Beach, CA Female 25 F 20–29 [9] 3:23:24 + 1:37:08
85 Robert Giannamore 759 Seal Beach, CA Male 31 M 30–39 [17] 3:23:26 + 1:37:10
86 Jackie Bariletto 729 Boulder City, NV Female 34 F 30–39 [16] 3:24:28 + 1:38:12
87 Liz Bariletto 728 Boulder City, NV Female 32 F 30–39 [17] 3:24:29 + 1:38:13
88 Jodie Froehlich 790 Madison, WI Female 38 F 30–39 [18] 3:25:18 + 1:39:02
89 Kristjana Smith 873 Ankeny, AR Female 37 F 30–39 [19] 3:25:53 + 1:39:37
90 Lindsey Snow 874 Verona, AR Female 37 F 30–39 [20] 3:29:04 + 1:42:48
91 Thomas Irizarry 823 Las Vegas, NV Male 38 M 30–39 [18] 3:29:40 + 1:43:24
92 Brittney Kalicki 742 Batavia, IL Female 36 F 30–39 [21] 3:37:25 + 1:51:09
93 Catherine M 741 Iowa City, IA Female 36 F 30–39 [22] 3:37:26 + 1:51:10
94 Lynda Limon 730 Anchorage, AK Female 50 F 50 – 59 [6] 3:38:16 + 1:52:00
95 Rick Mora 747 Las Vegas, NV Male 43 M 40–49 [16] 3:38:26 + 1:52:10
96 Cody Richardson 779 Santa Barbara, CA Male 37 M 30–39 [19] 3:40:51 + 1:54:35
97 Unknown Runner 679 Las Vegas, NV Male 30 M 30–39 [20] 3:44:53 + 1:58:37
98 Kyle Reese 831 Las Vegas, NV Male 31 M 30–39 [21] 3:47:27 + 2:01:11
99 Leona Tompkins 733 Fort Mcmurray, AB Female 42 F 40–49 [12] 3:50:59 + 2:04:43
100 Francie Stocking 795 Las Vegas, NV Female 45 F 40–49 [13] 3:51:01 + 2:04:45
101 Jocelyn Braun 875 Madison, AR Female 38 F 30–39 [23] 3:53:48 + 2:07:32
102 Unknown Runner 691 Las Vegas, NV Male 30 M 30–39 [22] 3:54:39 + 2:08:23
103 Unknown Runner 682 Las Vegas, NV Male 30 M 30–39 [23] 3:54:51 + 2:08:35
104 Marie Bickel 773 Henderson, NV Female 49 F 40–49 [14] 3:56:43 + 2:10:27
105 Geoff Bickel 834 Henderson, NV Male 48 M 40–49 [17] 3:56:44 + 2:10:28
106 Kelly Cage 781 Girard, OH Female 44 F 40–49 [15] 4:10:51 + 2:24:35
107 Elizabeth Livesay 881 Las Vegas, AR Female 45 F 40–49 [16] 4:10:51 + 2:24:35
108 Erin Burns 780 Masury, OH Female 29 F 20–29 [10] 4:10:52 + 2:24:36
109 Kerri Omand 761 Edmonton, AB Female 39 F 30–39 [24] 4:23:58 + 2:37:42
110 Maia Detmer 884 Las Vegas, NV Female 34 F 30–39 [25] 4:31:12 + 2:44:56
111 Chris Kargile 885 Male Mixed [1] 4:31:12 + 2:44:56
112 Tim Ganey 880 Female 65 F > 60 [1] 5:29:25 + 3:43:09